sensor_id;sensor_type;location;lat;lon;timestamp;temperature;humidity
16955;DHT22;8594;52.052;8.354;2023-03-23T00:02:22;12.70;99.90
16955;DHT22;8594;52.052;8.354;2023-03-23T00:04:51;12.60;99.90
16955;DHT22;8594;52.052;8.354;2023-03-23T00:07:20;12.60;99.90
16955;DHT22;8594;52.052;8.354;2023-03-23T00:09:47;12.70;99.90
16955;DHT22;8594;52.052;8.354;2023-03-23T00:12:19;12.70;99.90
16955;DHT22;8594;52.052;8.354;2023-03-23T00:14:47;12.90;99.90
16955;DHT22;8594;52.052;8.354;2023-03-23T00:17:14;12.80;99.90
16955;DHT22;8594;52.052;8.354;2023-03-23T00:19:41;12.70;99.90
16955;DHT22;8594;52.052;8.354;2023-03-23T00:22:13;12.60;99.90
16955;DHT22;8594;52.052;8.354;2023-03-23T00:24:42;12.60;99.90
16955;DHT22;8594;52.052;8.354;2023-03-23T00:27:10;12.60;99.90
16955;DHT22;8594;52.052;8.354;2023-03-23T00:29:40;12.70;99.90
16955;DHT22;8594;52.052;8.354;2023-03-23T00:32:08;12.70;99.90
16955;DHT22;8594;52.052;8.354;2023-03-23T00:34:38;12.70;99.90
16955;DHT22;8594;52.052;8.354;2023-03-23T00:37:07;12.60;99.90
16955;DHT22;8594;52.052;8.354;2023-03-23T00:39:35;12.60;99.90
16955;DHT22;8594;52.052;8.354;2023-03-23T00:42:05;12.60;99.90
16955;DHT22;8594;52.052;8.354;2023-03-23T00:44:33;12.60;99.90
16955;DHT22;8594;52.052;8.354;2023-03-23T00:47:01;12.50;99.90
16955;DHT22;8594;52.052;8.354;2023-03-23T00:49:34;12.70;99.90
16955;DHT22;8594;52.052;8.354;2023-03-23T00:52:03;12.70;99.90
16955;DHT22;8594;52.052;8.354;2023-03-23T00:54:31;12.90;99.90
16955;DHT22;8594;52.052;8.354;2023-03-23T00:57:00;12.80;99.90
16955;DHT22;8594;52.052;8.354;2023-03-23T00:59:28;12.70;99.90
16955;DHT22;8594;52.052;8.354;2023-03-23T01:01:55;12.70;99.90
16955;DHT22;8594;52.052;8.354;2023-03-23T01:04:22;12.70;99.90
16955;DHT22;8594;52.052;8.354;2023-03-23T01:06:50;12.80;99.90
16955;DHT22;8594;52.052;8.354;2023-03-23T01:09:18;12.70;99.90
16955;DHT22;8594;52.052;8.354;2023-03-23T01:11:47;12.90;99.90
16955;DHT22;8594;52.052;8.354;2023-03-23T01:14:17;12.90;99.90
16955;DHT22;8594;52.052;8.354;2023-03-23T01:16:46;12.80;99.90
16955;DHT22;8594;52.052;8.354;2023-03-23T01:19:13;12.70;99.90
16955;DHT22;8594;52.052;8.354;2023-03-23T01:21:41;12.80;99.90
16955;DHT22;8594;52.052;8.354;2023-03-23T01:24:08;12.70;99.90
16955;DHT22;8594;52.052;8.354;2023-03-23T01:26:35;12.70;99.90
16955;DHT22;8594;52.052;8.354;2023-03-23T01:29:01;12.70;99.90
16955;DHT22;8594;52.052;8.354;2023-03-23T01:31:30;12.70;99.90
16955;DHT22;8594;52.052;8.354;2023-03-23T01:33:58;12.70;99.90
16955;DHT22;8594;52.052;8.354;2023-03-23T01:36:27;12.80;99.90
16955;DHT22;8594;52.052;8.354;2023-03-23T01:38:58;12.70;99.90
16955;DHT22;8594;52.052;8.354;2023-03-23T01:41:26;12.70;99.90
16955;DHT22;8594;52.052;8.354;2023-03-23T01:43:54;12.70;99.90
16955;DHT22;8594;52.052;8.354;2023-03-23T01:46:29;12.80;99.90
16955;DHT22;8594;52.052;8.354;2023-03-23T01:49:02;12.70;99.90
16955;DHT22;8594;52.052;8.354;2023-03-23T01:51:35;12.80;99.90
16955;DHT22;8594;52.052;8.354;2023-03-23T01:54:08;12.90;99.90
16955;DHT22;8594;52.052;8.354;2023-03-23T01:56:47;12.90;99.90
16955;DHT22;8594;52.052;8.354;2023-03-23T01:59:19;12.90;99.90
16955;DHT22;8594;52.052;8.354;2023-03-23T02:01:49;12.80;99.90
16955;DHT22;8594;52.052;8.354;2023-03-23T02:04:19;12.70;99.90
16955;DHT22;8594;52.052;8.354;2023-03-23T02:06:47;12.80;99.90
16955;DHT22;8594;52.052;8.354;2023-03-23T02:09:14;12.90;99.90
16955;DHT22;8594;52.052;8.354;2023-03-23T02:11:42;12.90;99.90
16955;DHT22;8594;52.052;8.354;2023-03-23T02:14:10;13.00;99.90
16955;DHT22;8594;52.052;8.354;2023-03-23T02:16:41;12.90;99.90
16955;DHT22;8594;52.052;8.354;2023-03-23T02:19:39;12.90;99.90
16955;DHT22;8594;52.052;8.354;2023-03-23T02:22:41;12.90;99.90
16955;DHT22;8594;52.052;8.354;2023-03-23T02:25:38;12.90;99.90
16955;DHT22;8594;52.052;8.354;2023-03-23T02:28:43;12.90;99.90
16955;DHT22;8594;52.052;8.354;2023-03-23T02:31:41;12.90;99.90
16955;DHT22;8594;52.052;8.354;2023-03-23T02:34:17;12.90;99.90
16955;DHT22;8594;52.052;8.354;2023-03-23T02:36:47;12.90;99.90
16955;DHT22;8594;52.052;8.354;2023-03-23T02:39:23;12.80;99.90
16955;DHT22;8594;52.052;8.354;2023-03-23T02:41:56;12.80;99.90
16955;DHT22;8594;52.052;8.354;2023-03-23T02:44:28;12.90;99.90
16955;DHT22;8594;52.052;8.354;2023-03-23T02:46:58;12.90;99.90
16955;DHT22;8594;52.052;8.354;2023-03-23T02:49:30;12.90;99.90
16955;DHT22;8594;52.052;8.354;2023-03-23T02:52:03;12.90;99.90
16955;DHT22;8594;52.052;8.354;2023-03-23T02:54:34;13.00;99.90
16955;DHT22;8594;52.052;8.354;2023-03-23T02:57:02;13.00;99.90
16955;DHT22;8594;52.052;8.354;2023-03-23T02:59:29;12.90;99.90
16955;DHT22;8594;52.052;8.354;2023-03-23T03:02:01;12.80;99.90
16955;DHT22;8594;52.052;8.354;2023-03-23T03:04:33;12.80;99.90
16955;DHT22;8594;52.052;8.354;2023-03-23T03:07:15;12.80;99.90
16955;DHT22;8594;52.052;8.354;2023-03-23T03:10:03;12.80;99.90
16955;DHT22;8594;52.052;8.354;2023-03-23T03:12:43;12.80;99.90
16955;DHT22;8594;52.052;8.354;2023-03-23T03:15:23;12.70;99.90
16955;DHT22;8594;52.052;8.354;2023-03-23T03:18:00;12.80;99.90
16955;DHT22;8594;52.052;8.354;2023-03-23T03:20:37;12.90;99.90
16955;DHT22;8594;52.052;8.354;2023-03-23T03:23:08;12.90;99.90
16955;DHT22;8594;52.052;8.354;2023-03-23T03:25:38;12.80;99.90
16955;DHT22;8594;52.052;8.354;2023-03-23T03:28:08;12.80;99.90
16955;DHT22;8594;52.052;8.354;2023-03-23T03:30:37;12.80;99.90
16955;DHT22;8594;52.052;8.354;2023-03-23T03:33:05;12.80;99.90
16955;DHT22;8594;52.052;8.354;2023-03-23T03:35:36;12.70;99.90
16955;DHT22;8594;52.052;8.354;2023-03-23T03:38:06;12.70;99.90
16955;DHT22;8594;52.052;8.354;2023-03-23T03:40:34;12.70;99.90
16955;DHT22;8594;52.052;8.354;2023-03-23T03:43:02;12.70;99.90
16955;DHT22;8594;52.052;8.354;2023-03-23T03:45:29;12.70;99.90
16955;DHT22;8594;52.052;8.354;2023-03-23T03:47:56;12.70;99.90
16955;DHT22;8594;52.052;8.354;2023-03-23T03:50:23;12.70;99.90
16955;DHT22;8594;52.052;8.354;2023-03-23T03:52:52;12.70;99.90
16955;DHT22;8594;52.052;8.354;2023-03-23T03:55:19;12.70;99.90
16955;DHT22;8594;52.052;8.354;2023-03-23T03:57:45;12.70;99.90
16955;DHT22;8594;52.052;8.354;2023-03-23T04:00:14;12.70;99.90
16955;DHT22;8594;52.052;8.354;2023-03-23T04:02:42;12.80;99.90
16955;DHT22;8594;52.052;8.354;2023-03-23T04:05:13;12.70;99.90
16955;DHT22;8594;52.052;8.354;2023-03-23T04:07:40;12.70;99.90
16955;DHT22;8594;52.052;8.354;2023-03-23T04:10:10;12.60;99.90
16955;DHT22;8594;52.052;8.354;2023-03-23T04:12:39;12.70;99.90
16955;DHT22;8594;52.052;8.354;2023-03-23T04:15:06;12.70;99.90
16955;DHT22;8594;52.052;8.354;2023-03-23T04:17:34;12.80;99.90
16955;DHT22;8594;52.052;8.354;2023-03-23T04:20:02;12.80;99.90
16955;DHT22;8594;52.052;8.354;2023-03-23T04:22:32;12.70;99.90
16955;DHT22;8594;52.052;8.354;2023-03-23T04:25:01;12.80;99.90
16955;DHT22;8594;52.052;8.354;2023-03-23T04:27:33;12.80;99.90
16955;DHT22;8594;52.052;8.354;2023-03-23T04:30:00;12.90;99.90
16955;DHT22;8594;52.052;8.354;2023-03-23T04:32:28;12.80;99.90
16955;DHT22;8594;52.052;8.354;2023-03-23T04:34:56;12.80;99.90
16955;DHT22;8594;52.052;8.354;2023-03-23T04:37:23;12.70;99.90
16955;DHT22;8594;52.052;8.354;2023-03-23T04:39:54;12.60;99.90
16955;DHT22;8594;52.052;8.354;2023-03-23T04:42:26;12.70;99.90
16955;DHT22;8594;52.052;8.354;2023-03-23T04:44:56;12.70;99.90
16955;DHT22;8594;52.052;8.354;2023-03-23T04:47:25;12.60;99.90
16955;DHT22;8594;52.052;8.354;2023-03-23T04:49:55;12.60;99.90
16955;DHT22;8594;52.052;8.354;2023-03-23T04:52:22;12.70;99.90
16955;DHT22;8594;52.052;8.354;2023-03-23T04:54:50;12.80;99.90
16955;DHT22;8594;52.052;8.354;2023-03-23T04:57:18;12.60;99.90
16955;DHT22;8594;52.052;8.354;2023-03-23T04:59:45;12.50;99.90
16955;DHT22;8594;52.052;8.354;2023-03-23T05:02:13;12.60;99.90
16955;DHT22;8594;52.052;8.354;2023-03-23T05:04:42;12.80;99.90
16955;DHT22;8594;52.052;8.354;2023-03-23T05:07:10;12.80;99.90
16955;DHT22;8594;52.052;8.354;2023-03-23T05:09:38;12.80;99.90
16955;DHT22;8594;52.052;8.354;2023-03-23T05:12:05;12.70;99.90
16955;DHT22;8594;52.052;8.354;2023-03-23T05:14:33;12.70;99.90
16955;DHT22;8594;52.052;8.354;2023-03-23T05:17:00;12.80;99.90
16955;DHT22;8594;52.052;8.354;2023-03-23T05:19:28;12.70;99.90
16955;DHT22;8594;52.052;8.354;2023-03-23T05:21:56;12.70;99.90
16955;DHT22;8594;52.052;8.354;2023-03-23T05:24:28;12.70;99.90
16955;DHT22;8594;52.052;8.354;2023-03-23T05:26:58;12.80;99.90
16955;DHT22;8594;52.052;8.354;2023-03-23T05:29:25;12.70;99.90
16955;DHT22;8594;52.052;8.354;2023-03-23T05:31:55;12.70;99.90
16955;DHT22;8594;52.052;8.354;2023-03-23T05:34:25;12.80;99.90
16955;DHT22;8594;52.052;8.354;2023-03-23T05:36:53;12.70;99.90
16955;DHT22;8594;52.052;8.354;2023-03-23T05:39:20;12.80;99.90
16955;DHT22;8594;52.052;8.354;2023-03-23T05:41:48;12.80;99.90
16955;DHT22;8594;52.052;8.354;2023-03-23T05:44:14;12.70;99.90
16955;DHT22;8594;52.052;8.354;2023-03-23T05:46:41;12.70;99.90
16955;DHT22;8594;52.052;8.354;2023-03-23T05:49:08;12.70;99.90
16955;DHT22;8594;52.052;8.354;2023-03-23T05:51:35;12.70;99.90
16955;DHT22;8594;52.052;8.354;2023-03-23T05:54:04;12.70;99.90
16955;DHT22;8594;52.052;8.354;2023-03-23T05:56:32;12.80;99.90
16955;DHT22;8594;52.052;8.354;2023-03-23T05:58:59;12.80;99.90
16955;DHT22;8594;52.052;8.354;2023-03-23T06:01:25;12.70;99.90
16955;DHT22;8594;52.052;8.354;2023-03-23T06:03:53;12.70;99.90
16955;DHT22;8594;52.052;8.354;2023-03-23T06:06:23;12.60;99.90
16955;DHT22;8594;52.052;8.354;2023-03-23T06:08:51;12.70;99.90
16955;DHT22;8594;52.052;8.354;2023-03-23T06:11:19;12.80;99.90
16955;DHT22;8594;52.052;8.354;2023-03-23T06:13:47;12.70;99.90
16955;DHT22;8594;52.052;8.354;2023-03-23T06:16:14;12.80;99.90
16955;DHT22;8594;52.052;8.354;2023-03-23T06:18:42;12.80;99.90
16955;DHT22;8594;52.052;8.354;2023-03-23T06:21:09;12.80;99.90
16955;DHT22;8594;52.052;8.354;2023-03-23T06:23:38;12.90;99.90
16955;DHT22;8594;52.052;8.354;2023-03-23T06:26:06;12.90;99.90
16955;DHT22;8594;52.052;8.354;2023-03-23T06:28:36;12.90;99.90
16955;DHT22;8594;52.052;8.354;2023-03-23T06:31:05;12.90;99.90
16955;DHT22;8594;52.052;8.354;2023-03-23T06:33:33;12.80;99.90
16955;DHT22;8594;52.052;8.354;2023-03-23T06:36:01;13.00;99.90
16955;DHT22;8594;52.052;8.354;2023-03-23T06:38:29;13.00;99.90
16955;DHT22;8594;52.052;8.354;2023-03-23T06:40:56;13.10;99.90
16955;DHT22;8594;52.052;8.354;2023-03-23T06:43:23;13.10;99.90
16955;DHT22;8594;52.052;8.354;2023-03-23T06:45:52;13.10;99.90
16955;DHT22;8594;52.052;8.354;2023-03-23T06:48:19;13.30;99.90
16955;DHT22;8594;52.052;8.354;2023-03-23T06:50:46;13.30;99.90
16955;DHT22;8594;52.052;8.354;2023-03-23T06:53:13;13.20;99.90
16955;DHT22;8594;52.052;8.354;2023-03-23T06:55:42;13.20;99.90
16955;DHT22;8594;52.052;8.354;2023-03-23T06:58:10;13.20;99.90
16955;DHT22;8594;52.052;8.354;2023-03-23T07:00:37;13.30;99.90
16955;DHT22;8594;52.052;8.354;2023-03-23T07:03:07;13.30;99.90
16955;DHT22;8594;52.052;8.354;2023-03-23T07:05:33;13.30;99.90
16955;DHT22;8594;52.052;8.354;2023-03-23T07:08:01;13.40;99.90
16955;DHT22;8594;52.052;8.354;2023-03-23T07:10:29;13.50;99.90
16955;DHT22;8594;52.052;8.354;2023-03-23T07:12:57;13.50;99.90
16955;DHT22;8594;52.052;8.354;2023-03-23T07:15:24;13.60;99.90
16955;DHT22;8594;52.052;8.354;2023-03-23T07:17:52;13.50;99.90
16955;DHT22;8594;52.052;8.354;2023-03-23T07:20:21;13.40;99.90
16955;DHT22;8594;52.052;8.354;2023-03-23T07:22:48;13.60;99.90
16955;DHT22;8594;52.052;8.354;2023-03-23T07:25:16;13.70;99.90
16955;DHT22;8594;52.052;8.354;2023-03-23T07:27:44;13.70;99.90
16955;DHT22;8594;52.052;8.354;2023-03-23T07:30:12;13.70;99.90
16955;DHT22;8594;52.052;8.354;2023-03-23T07:32:40;13.70;99.90
16955;DHT22;8594;52.052;8.354;2023-03-23T07:35:08;13.70;99.90
16955;DHT22;8594;52.052;8.354;2023-03-23T07:37:37;13.80;99.90
16955;DHT22;8594;52.052;8.354;2023-03-23T07:40:05;13.80;99.90
16955;DHT22;8594;52.052;8.354;2023-03-23T07:42:40;13.80;99.90
16955;DHT22;8594;52.052;8.354;2023-03-23T07:45:09;14.00;99.90
16955;DHT22;8594;52.052;8.354;2023-03-23T07:47:37;13.90;99.90
16955;DHT22;8594;52.052;8.354;2023-03-23T07:50:05;14.00;99.90
16955;DHT22;8594;52.052;8.354;2023-03-23T07:52:33;13.90;99.90
16955;DHT22;8594;52.052;8.354;2023-03-23T07:55:04;13.90;99.90
16955;DHT22;8594;52.052;8.354;2023-03-23T07:57:34;13.80;99.90
16955;DHT22;8594;52.052;8.354;2023-03-23T08:00:01;13.70;99.90
16955;DHT22;8594;52.052;8.354;2023-03-23T08:02:40;13.60;99.90
16955;DHT22;8594;52.052;8.354;2023-03-23T08:05:07;13.50;99.90
16955;DHT22;8594;52.052;8.354;2023-03-23T08:07:35;13.40;99.90
16955;DHT22;8594;52.052;8.354;2023-03-23T08:10:05;13.50;99.90
16955;DHT22;8594;52.052;8.354;2023-03-23T08:12:35;13.40;99.90
16955;DHT22;8594;52.052;8.354;2023-03-23T08:15:03;13.60;99.90
16955;DHT22;8594;52.052;8.354;2023-03-23T08:17:31;13.60;99.90
16955;DHT22;8594;52.052;8.354;2023-03-23T08:20:00;13.60;99.90
16955;DHT22;8594;52.052;8.354;2023-03-23T08:22:33;13.60;99.90
16955;DHT22;8594;52.052;8.354;2023-03-23T08:25:01;13.40;99.90
16955;DHT22;8594;52.052;8.354;2023-03-23T08:27:30;13.60;99.90
16955;DHT22;8594;52.052;8.354;2023-03-23T08:29:57;13.60;99.90
16955;DHT22;8594;52.052;8.354;2023-03-23T08:32:24;13.80;99.90
16955;DHT22;8594;52.052;8.354;2023-03-23T08:34:51;13.60;99.90
16955;DHT22;8594;52.052;8.354;2023-03-23T08:37:18;13.60;99.90
16955;DHT22;8594;52.052;8.354;2023-03-23T08:39:45;13.60;99.90
16955;DHT22;8594;52.052;8.354;2023-03-23T08:42:12;13.60;99.90
16955;DHT22;8594;52.052;8.354;2023-03-23T08:44:40;13.70;99.90
16955;DHT22;8594;52.052;8.354;2023-03-23T08:47:07;13.90;99.90
16955;DHT22;8594;52.052;8.354;2023-03-23T08:49:35;14.10;99.90
16955;DHT22;8594;52.052;8.354;2023-03-23T08:52:02;14.10;99.90
16955;DHT22;8594;52.052;8.354;2023-03-23T08:54:29;14.10;99.90
16955;DHT22;8594;52.052;8.354;2023-03-23T08:56:59;14.10;99.90
16955;DHT22;8594;52.052;8.354;2023-03-23T08:59:27;14.00;99.90
16955;DHT22;8594;52.052;8.354;2023-03-23T09:01:55;14.10;99.90
16955;DHT22;8594;52.052;8.354;2023-03-23T09:04:22;14.20;99.90
16955;DHT22;8594;52.052;8.354;2023-03-23T09:06:49;14.20;99.90
16955;DHT22;8594;52.052;8.354;2023-03-23T09:09:16;14.20;99.90
16955;DHT22;8594;52.052;8.354;2023-03-23T09:11:43;14.30;99.90
16955;DHT22;8594;52.052;8.354;2023-03-23T09:14:10;14.20;99.90
16955;DHT22;8594;52.052;8.354;2023-03-23T09:16:37;14.20;99.90
16955;DHT22;8594;52.052;8.354;2023-03-23T09:19:06;14.20;99.90
16955;DHT22;8594;52.052;8.354;2023-03-23T09:21:35;14.20;99.90
16955;DHT22;8594;52.052;8.354;2023-03-23T09:24:03;14.20;99.90
16955;DHT22;8594;52.052;8.354;2023-03-23T09:26:30;14.20;99.90
16955;DHT22;8594;52.052;8.354;2023-03-23T09:28:58;14.30;99.90
16955;DHT22;8594;52.052;8.354;2023-03-23T09:31:25;14.50;99.90
16955;DHT22;8594;52.052;8.354;2023-03-23T09:33:53;14.30;99.90
16955;DHT22;8594;52.052;8.354;2023-03-23T09:36:23;14.10;99.90
16955;DHT22;8594;52.052;8.354;2023-03-23T09:38:51;14.20;99.90
16955;DHT22;8594;52.052;8.354;2023-03-23T09:41:35;14.30;99.90
16955;DHT22;8594;52.052;8.354;2023-03-23T09:44:18;14.40;99.90
16955;DHT22;8594;52.052;8.354;2023-03-23T09:46:59;14.20;99.90
16955;DHT22;8594;52.052;8.354;2023-03-23T09:49:32;14.10;99.90
16955;DHT22;8594;52.052;8.354;2023-03-23T09:52:10;14.20;99.90
16955;DHT22;8594;52.052;8.354;2023-03-23T09:54:42;14.20;99.90
16955;DHT22;8594;52.052;8.354;2023-03-23T09:57:14;14.20;99.90
16955;DHT22;8594;52.052;8.354;2023-03-23T09:59:51;14.00;99.90
16955;DHT22;8594;52.052;8.354;2023-03-23T10:02:27;14.10;99.90
16955;DHT22;8594;52.052;8.354;2023-03-23T10:05:22;14.20;99.90
16955;DHT22;8594;52.052;8.354;2023-03-23T10:07:55;14.30;99.90
16955;DHT22;8594;52.052;8.354;2023-03-23T10:10:26;14.40;99.90
16955;DHT22;8594;52.052;8.354;2023-03-23T10:13:02;14.50;99.90
16955;DHT22;8594;52.052;8.354;2023-03-23T10:15:36;14.40;99.90
16955;DHT22;8594;52.052;8.354;2023-03-23T10:18:13;14.60;99.90
16955;DHT22;8594;52.052;8.354;2023-03-23T10:20:48;14.60;99.90
16955;DHT22;8594;52.052;8.354;2023-03-23T10:23:43;14.80;99.90
16955;DHT22;8594;52.052;8.354;2023-03-23T10:26:26;15.00;99.90
16955;DHT22;8594;52.052;8.354;2023-03-23T10:29:01;14.80;99.90
16955;DHT22;8594;52.052;8.354;2023-03-23T10:31:39;15.00;99.90
16955;DHT22;8594;52.052;8.354;2023-03-23T10:34:11;15.10;99.90
16955;DHT22;8594;52.052;8.354;2023-03-23T10:36:52;15.20;99.90
16955;DHT22;8594;52.052;8.354;2023-03-23T10:39:30;14.90;99.90
16955;DHT22;8594;52.052;8.354;2023-03-23T10:42:04;14.30;99.90
16955;DHT22;8594;52.052;8.354;2023-03-23T10:44:33;13.60;99.90
16955;DHT22;8594;52.052;8.354;2023-03-23T10:47:02;12.80;99.90
16955;DHT22;8594;52.052;8.354;2023-03-23T10:49:34;12.60;99.90
16955;DHT22;8594;52.052;8.354;2023-03-23T10:52:16;12.40;99.90
16955;DHT22;8594;52.052;8.354;2023-03-23T10:54:55;12.30;99.90
16955;DHT22;8594;52.052;8.354;2023-03-23T10:57:26;12.10;99.90
16955;DHT22;8594;52.052;8.354;2023-03-23T11:00:02;12.20;99.90
16955;DHT22;8594;52.052;8.354;2023-03-23T11:02:37;12.10;99.90
16955;DHT22;8594;52.052;8.354;2023-03-23T11:05:15;12.10;99.90
16955;DHT22;8594;52.052;8.354;2023-03-23T11:07:50;11.90;99.90
16955;DHT22;8594;52.052;8.354;2023-03-23T11:10:24;12.10;99.90
16955;DHT22;8594;52.052;8.354;2023-03-23T11:12:53;11.90;99.90
16955;DHT22;8594;52.052;8.354;2023-03-23T11:15:27;12.00;99.90
16955;DHT22;8594;52.052;8.354;2023-03-23T11:18:01;12.00;99.90
16955;DHT22;8594;52.052;8.354;2023-03-23T11:20:32;11.90;99.90
16955;DHT22;8594;52.052;8.354;2023-03-23T11:23:15;12.10;99.90
16955;DHT22;8594;52.052;8.354;2023-03-23T11:25:59;12.20;99.90
16955;DHT22;8594;52.052;8.354;2023-03-23T11:28:32;12.10;99.90
16955;DHT22;8594;52.052;8.354;2023-03-23T11:31:02;12.10;99.90
16955;DHT22;8594;52.052;8.354;2023-03-23T11:33:36;12.20;99.90
16955;DHT22;8594;52.052;8.354;2023-03-23T11:36:06;12.20;99.90
16955;DHT22;8594;52.052;8.354;2023-03-23T11:38:34;12.10;99.90
16955;DHT22;8594;52.052;8.354;2023-03-23T11:41:09;12.10;99.90
16955;DHT22;8594;52.052;8.354;2023-03-23T11:43:40;12.20;99.90
16955;DHT22;8594;52.052;8.354;2023-03-23T11:46:15;12.10;99.90
16955;DHT22;8594;52.052;8.354;2023-03-23T11:48:53;12.20;99.90
16955;DHT22;8594;52.052;8.354;2023-03-23T11:51:29;12.30;99.90
16955;DHT22;8594;52.052;8.354;2023-03-23T11:54:02;12.20;99.90
16955;DHT22;8594;52.052;8.354;2023-03-23T11:56:38;12.20;99.90
16955;DHT22;8594;52.052;8.354;2023-03-23T11:59:11;12.10;99.90
16955;DHT22;8594;52.052;8.354;2023-03-23T12:01:47;12.30;99.90
16955;DHT22;8594;52.052;8.354;2023-03-23T12:04:40;12.40;99.90
16955;DHT22;8594;52.052;8.354;2023-03-23T12:07:34;12.40;99.90
16955;DHT22;8594;52.052;8.354;2023-03-23T12:10:22;12.40;99.90
16955;DHT22;8594;52.052;8.354;2023-03-23T12:13:03;12.30;99.90
16955;DHT22;8594;52.052;8.354;2023-03-23T12:15:45;12.50;99.90
16955;DHT22;8594;52.052;8.354;2023-03-23T12:18:25;12.60;99.90
16955;DHT22;8594;52.052;8.354;2023-03-23T12:21:17;12.50;99.90
16955;DHT22;8594;52.052;8.354;2023-03-23T12:23:56;12.40;99.90
16955;DHT22;8594;52.052;8.354;2023-03-23T12:26:30;12.60;99.90
16955;DHT22;8594;52.052;8.354;2023-03-23T12:29:17;12.60;99.90
16955;DHT22;8594;52.052;8.354;2023-03-23T12:32:06;12.70;99.90
16955;DHT22;8594;52.052;8.354;2023-03-23T12:34:53;12.70;99.90
16955;DHT22;8594;52.052;8.354;2023-03-23T12:37:32;12.80;99.90
16955;DHT22;8594;52.052;8.354;2023-03-23T12:40:25;12.90;99.90
16955;DHT22;8594;52.052;8.354;2023-03-23T12:43:05;12.70;99.90
16955;DHT22;8594;52.052;8.354;2023-03-23T12:45:55;12.80;99.90
16955;DHT22;8594;52.052;8.354;2023-03-23T12:48:33;12.70;99.90
16955;DHT22;8594;52.052;8.354;2023-03-23T12:51:10;12.60;99.90
16955;DHT22;8594;52.052;8.354;2023-03-23T12:53:48;12.60;99.90
16955;DHT22;8594;52.052;8.354;2023-03-23T12:56:24;12.90;99.90
16955;DHT22;8594;52.052;8.354;2023-03-23T12:59:07;13.00;99.90
16955;DHT22;8594;52.052;8.354;2023-03-23T13:01:43;13.20;99.90
16955;DHT22;8594;52.052;8.354;2023-03-23T13:04:17;13.00;99.90
16955;DHT22;8594;52.052;8.354;2023-03-23T13:06:48;12.90;99.90
16955;DHT22;8594;52.052;8.354;2023-03-23T13:09:19;12.90;99.90
16955;DHT22;8594;52.052;8.354;2023-03-23T13:11:51;13.10;99.90
16955;DHT22;8594;52.052;8.354;2023-03-23T13:14:34;13.10;99.90
16955;DHT22;8594;52.052;8.354;2023-03-23T13:17:15;13.00;99.90
16955;DHT22;8594;52.052;8.354;2023-03-23T13:23:07;13.30;99.90
16955;DHT22;8594;52.052;8.354;2023-03-23T13:25:49;13.20;99.90
16955;DHT22;8594;52.052;8.354;2023-03-23T13:28:20;13.60;99.90
16955;DHT22;8594;52.052;8.354;2023-03-23T13:30:56;13.70;99.90
16955;DHT22;8594;52.052;8.354;2023-03-23T13:33:26;13.70;99.90
16955;DHT22;8594;52.052;8.354;2023-03-23T13:35:56;13.70;99.90
16955;DHT22;8594;52.052;8.354;2023-03-23T13:38:30;13.60;99.90
16955;DHT22;8594;52.052;8.354;2023-03-23T13:40:58;13.80;99.90
16955;DHT22;8594;52.052;8.354;2023-03-23T13:43:34;13.90;99.90
16955;DHT22;8594;52.052;8.354;2023-03-23T13:46:13;13.70;99.90
16955;DHT22;8594;52.052;8.354;2023-03-23T13:49:13;13.80;99.90
16955;DHT22;8594;52.052;8.354;2023-03-23T13:52:14;13.50;99.90
16955;DHT22;8594;52.052;8.354;2023-03-23T13:54:45;13.30;99.90
16955;DHT22;8594;52.052;8.354;2023-03-23T13:57:34;13.40;99.90
16955;DHT22;8594;52.052;8.354;2023-03-23T14:00:25;13.40;99.90
16955;DHT22;8594;52.052;8.354;2023-03-23T14:03:10;13.60;99.90
16955;DHT22;8594;52.052;8.354;2023-03-23T14:05:42;13.70;99.90
16955;DHT22;8594;52.052;8.354;2023-03-23T14:08:13;13.80;99.90
16955;DHT22;8594;52.052;8.354;2023-03-23T14:10:51;13.80;99.90
16955;DHT22;8594;52.052;8.354;2023-03-23T14:13:25;13.80;99.90
16955;DHT22;8594;52.052;8.354;2023-03-23T14:15:59;13.90;99.90
16955;DHT22;8594;52.052;8.354;2023-03-23T14:18:32;14.00;99.90
16955;DHT22;8594;52.052;8.354;2023-03-23T14:21:05;13.80;99.90
16955;DHT22;8594;52.052;8.354;2023-03-23T14:23:39;13.80;99.90
16955;DHT22;8594;52.052;8.354;2023-03-23T14:26:11;13.70;99.90
16955;DHT22;8594;52.052;8.354;2023-03-23T14:28:44;13.70;99.90
16955;DHT22;8594;52.052;8.354;2023-03-23T14:31:17;13.80;99.90
16955;DHT22;8594;52.052;8.354;2023-03-23T14:33:46;13.80;99.90
16955;DHT22;8594;52.052;8.354;2023-03-23T14:36:20;14.00;99.90
16955;DHT22;8594;52.052;8.354;2023-03-23T14:38:54;14.10;99.90
16955;DHT22;8594;52.052;8.354;2023-03-23T14:41:23;14.20;99.90
16955;DHT22;8594;52.052;8.354;2023-03-23T14:43:50;14.40;99.90
16955;DHT22;8594;52.052;8.354;2023-03-23T14:46:17;14.30;99.90
16955;DHT22;8594;52.052;8.354;2023-03-23T14:48:44;14.50;99.90
16955;DHT22;8594;52.052;8.354;2023-03-23T14:51:18;14.60;99.90
16955;DHT22;8594;52.052;8.354;2023-03-23T14:53:47;14.80;99.90
16955;DHT22;8594;52.052;8.354;2023-03-23T14:56:18;14.50;99.90
16955;DHT22;8594;52.052;8.354;2023-03-23T14:58:48;14.70;99.90
16955;DHT22;8594;52.052;8.354;2023-03-23T15:01:18;14.60;99.90
16955;DHT22;8594;52.052;8.354;2023-03-23T15:03:53;14.70;99.90
16955;DHT22;8594;52.052;8.354;2023-03-23T15:06:27;14.60;99.90
16955;DHT22;8594;52.052;8.354;2023-03-23T15:09:00;14.50;99.90
16955;DHT22;8594;52.052;8.354;2023-03-23T15:11:32;14.40;99.90
16955;DHT22;8594;52.052;8.354;2023-03-23T15:14:09;14.40;99.90
16955;DHT22;8594;52.052;8.354;2023-03-23T15:16:45;14.50;99.90
16955;DHT22;8594;52.052;8.354;2023-03-23T15:19:17;14.50;99.90
16955;DHT22;8594;52.052;8.354;2023-03-23T15:21:49;14.30;99.90
16955;DHT22;8594;52.052;8.354;2023-03-23T15:24:21;14.10;99.90
16955;DHT22;8594;52.052;8.354;2023-03-23T15:26:52;13.90;99.90
16955;DHT22;8594;52.052;8.354;2023-03-23T15:29:21;14.00;99.90
16955;DHT22;8594;52.052;8.354;2023-03-23T15:31:51;13.90;99.90
16955;DHT22;8594;52.052;8.354;2023-03-23T15:34:31;14.10;99.90
16955;DHT22;8594;52.052;8.354;2023-03-23T15:37:18;14.30;99.90
16955;DHT22;8594;52.052;8.354;2023-03-23T15:39:49;14.40;99.90
16955;DHT22;8594;52.052;8.354;2023-03-23T15:42:22;14.40;99.90
16955;DHT22;8594;52.052;8.354;2023-03-23T15:45:06;14.40;99.90
16955;DHT22;8594;52.052;8.354;2023-03-23T15:47:48;14.50;99.90
16955;DHT22;8594;52.052;8.354;2023-03-23T15:50:17;14.50;99.90
16955;DHT22;8594;52.052;8.354;2023-03-23T15:52:48;14.60;99.90
16955;DHT22;8594;52.052;8.354;2023-03-23T15:55:25;14.40;99.90
16955;DHT22;8594;52.052;8.354;2023-03-23T15:57:56;14.20;99.90
16955;DHT22;8594;52.052;8.354;2023-03-23T16:00:25;14.30;99.90
16955;DHT22;8594;52.052;8.354;2023-03-23T16:02:56;14.40;99.90
16955;DHT22;8594;52.052;8.354;2023-03-23T16:05:26;14.50;99.90
16955;DHT22;8594;52.052;8.354;2023-03-23T16:07:55;14.60;99.90
16955;DHT22;8594;52.052;8.354;2023-03-23T16:10:24;14.50;99.90
16955;DHT22;8594;52.052;8.354;2023-03-23T16:12:52;14.40;99.90
16955;DHT22;8594;52.052;8.354;2023-03-23T16:15:19;14.40;99.90
16955;DHT22;8594;52.052;8.354;2023-03-23T16:17:46;14.40;99.90
16955;DHT22;8594;52.052;8.354;2023-03-23T16:20:18;14.40;99.90